Main page
METAR-TAF:

METAR-TAF

Airports :

Hamad International Airport

Doha, Qatar

latitude: 25-16-23N, longitude: 51-36-29E, elevation: 4 m

Current weather observation

The report was made 1 hour and 1 minutes ago, at 21:00 UTC
Wind 9 kt from the West/Northwest
Temperature 34°C
Humidity 30%
Pressure 998 hPa
Visibility 10 km or more
no clouds below 1500 m and no cumulonimbus

METAR: OTHH 102100Z 30009KT CAVOK 34/14 Q0998 NOSIG

Time: 01:01 (22:01 UTC)

Forecast

The report was made 4 hours and 54 minutes ago, at 17:07 UTC
Forecast valid from 10 at 18 UTC to 11 at 24 UTC
Wind 10 kt from the Northwest
Visibility: 8000 m
Temporary
from 10 at 18 UTC to 11 at 04 UTC
Wind 7 kt from the West/Southwest
Becoming
from 11 at 05 UTC to 11 at 07 UTC
Wind 9 kt from the Northeast
Temporary
from 11 at 10 UTC to 11 at 15 UTC
Wind 12 kt from the East/Southeast

TAF: OTHH 101707Z 1018/1124 31010KT 8000 NSC TEMPO 1018/1104 25007KT BECMG 1105/1107 05009KT TEMPO 1110/1115 11012KT

Weather observations and forecasts of more than 4000 airports (METAR and TAF reports).

The available stations are represented by yellow and red dots on the map.

Hover mouse over dot to see the name of the station.

Then click to see weather observations and forecasts.

To change the map : click on the green buttons with a black cross to zoom in, on the green button with a dash to zoom out, or on the green arrows for adjacent maps.


METAR-TAF: